Rockerville, South Dakota
Current Conditions -  °F | °C
As of 3:52 PM on Wednesday 26 Nov 2014 (Local Time) from KRAP Reporting Station
Overcast Overcast  
Wind Chill: 31°   Ceiling: 2000
Heat Index: 31°   Visibility: 10mi
Dew Point: 24°   Wind: 0mph
Humidity: 76%   Direction: NA
Pressure: 30.26"   Gusts: NA
Location:  44.0731°N, 103.205°W
Report Text: KRAP 262252Z 00000KT 10SM OVC020 M01/M04 A3026 RMK AO2 SLP284 T10061044
Loading
Personal Weather Stations






























Interactive Weather Map New forecast layout! Learn more

10-Day Weather Forecast

Advertisements
Track Severe Weather on mobile